首页
METAR-TAF:

METAR-TAF

机场 :

乌代德空军基地, 卡塔尔

纬度: 25-07N, 经度: 051-18E, 海拔: 42米

当前天气观测

该预报发布于1小时和5分钟前的04:56 UTC
风速6节,风向西
温度 16°C
湿度 82%
气压 1016 hPa
能見度: 8000
天空无云
轻雾

METAR: OTBH 290456Z 26006KT 8000 BR CLR 16/13 A2999 RMK AO2A SLP158 WND DATA ESTMD ALSTG/SLP ESTMD T01600130 $

时间: 09:01 (06:01 UTC)

预报

该预报发布于6小时和46分钟前的23:15 UTC
预报有效从29日的 00点(UTC)到 01日的 06点(UTC)
风速6节,风向西转西北
能見度: 8000
少量云层高于12000英尺
轻雾
短暂存在
从 29日的 01点(UTC)到 29日的 04点(UTC)
能見度: 5000
轻雾
成为
从 29日的 05点(UTC)到 29日的 06点(UTC)
风速9节,风向西
能见度10公里或以上
天空无云
成为
从 29日的 11点(UTC)到 29日的 12点(UTC)
风速6节,风向多变
能见度10公里或以上
天空无云
成为
从 29日的 20点(UTC)到 29日的 21点(UTC)
风速6节,风向南转南东
能見度: 8000
天空无云
轻雾

TAF: OTBH 282315Z 2900/0106 30006KT 8000 BR FEW120 QNH2992INS TEMPO 2901/2904 5000 BR BECMG 2905/2906 27009KT 9999 NSW SKC QNH2987INS BECMG 2911/2912 VRB06KT 9999 SKC QNH2988INS BECMG 2920/2921 15006KT 8000 BR SKC QNH2985INS TX25/2911Z TN11/2903Z

超过4000个机场的气象观测和天气预报(METAR&TAF报告)。

可查询的气象台以黄色和红色小点在地图上表示。

将鼠标移到小点上方,可查看气象台名称。

然后点击查看天气观测和预报。

如需切换地图:点击带黑十字的绿色按钮放大地图;点击带横线的绿色按钮缩小地图;或者点击绿色箭头查看邻近地区的地图。


METAR-TAF: